Time;durP1;ratioP1;P1;durP2;ratioP2;P2;SDS_P1;SDS_P2;PMS_P1;PMS_P2;Temp;Humidity;BMP_temperature;BMP_pressure;BME280_temperature;BME280_humidity;BME280_pressure;Samples;Min_cycle;Max_cycle;Signal;HPM_P1;HPM_P2
2021/07/29 00:01:31;;;;;;;2.40;1.40;;;17.80;84.70;;;;;;5029740;28;20024;-75
2021/07/29 00:03:56;;;;;;;4.43;1.55;;;17.70;84.50;;;;;;5028894;28;20124;-75
2021/07/29 00:06:22;;;;;;;3.33;1.63;;;17.70;84.60;;;;;;5014458;28;20333;-75
2021/07/29 00:08:48;;;;;;;3.75;1.42;;;17.70;84.90;;;;;;5013622;28;20438;-74
2021/07/29 00:11:20;;;;;;;5.05;1.60;;;17.60;84.90;;;;;;5014453;28;20108;-75
2021/07/29 00:13:46;;;;;;;3.65;1.85;;;17.60;84.90;;;;;;5013640;28;20030;-74
2021/07/29 00:16:12;;;;;;;5.15;1.50;;;17.60;84.90;;;;;;5014208;28;20028;-77
2021/07/29 00:21:22;;;;;;;3.28;1.75;;;17.60;84.80;;;;;;5014276;28;20493;-75
2021/07/29 00:23:49;;;;;;;2.47;1.33;;;17.70;84.80;;;;;;5013782;28;20029;-75
2021/07/29 00:26:16;;;;;;;3.42;1.40;;;17.70;84.70;;;;;;5029394;28;20421;-75
2021/07/29 00:28:41;;;;;;;3.40;1.63;;;17.70;84.30;;;;;;5012089;28;20026;-75
2021/07/29 00:31:07;;;;;;;5.07;1.70;;;17.70;84.00;;;;;;5014027;28;20361;-74
2021/07/29 00:33:32;;;;;;;3.92;1.52;;;17.60;84.10;;;;;;5029008;28;20037;-75
2021/07/29 00:35:58;;;;;;;3.90;1.55;;;17.60;83.80;;;;;;5013342;28;20131;-75
2021/07/29 00:38:24;;;;;;;5.22;1.38;;;17.60;84.20;;;;;;5013907;28;20079;-74
2021/07/29 00:40:49;;;;;;;2.60;1.17;;;17.60;84.40;;;;;;5013265;28;20330;-74
2021/07/29 00:43:16;;;;;;;3.67;1.52;;;17.50;84.60;;;;;;5013146;28;20101;-75
2021/07/29 00:45:44;;;;;;;1.85;1.38;;;17.50;84.50;;;;;;5028325;28;20033;-75
2021/07/29 00:48:13;;;;;;;3.15;1.58;;;17.50;84.70;;;;;;5028806;28;20037;-75
2021/07/29 00:50:39;;;;;;;3.83;1.63;;;17.50;84.60;;;;;;5013235;28;20017;-75
2021/07/29 00:53:08;;;;;;;2.70;1.38;;;17.50;84.60;;;;;;5029070;28;20180;-75
2021/07/29 00:55:33;;;;;;;5.82;1.70;;;17.40;84.80;;;;;;5013333;28;20021;-75
2021/07/29 00:57:59;;;;;;;5.90;1.40;;;17.40;84.80;;;;;;5028120;28;20018;-75
2021/07/29 01:00:25;;;;;;;3.53;1.70;;;17.40;84.90;;;;;;5013391;28;20020;-75
2021/07/29 01:02:53;;;;;;;4.30;1.50;;;17.40;85.00;;;;;;5012502;28;20123;-75
2021/07/29 01:05:20;;;;;;;4.30;1.48;;;17.40;85.20;;;;;;5012218;28;20121;-75
2021/07/29 01:07:46;;;;;;;6.65;2.10;;;17.40;85.20;;;;;;5012570;28;20018;-75
2021/07/29 01:10:11;;;;;;;2.88;1.15;;;17.40;85.20;;;;;;5028495;28;20529;-75
2021/07/29 01:12:37;;;;;;;3.45;1.63;;;17.30;85.20;;;;;;5028316;28;20025;-75
2021/07/29 01:15:04;;;;;;;4.65;1.70;;;17.30;85.10;;;;;;5012654;28;20061;-75
2021/07/29 01:17:32;;;;;;;2.05;1.38;;;17.30;85.00;;;;;;5013206;28;20018;-75
2021/07/29 01:19:58;;;;;;;6.07;1.40;;;17.30;85.10;;;;;;5012541;28;20018;-74
2021/07/29 01:22:32;;;;;;;5.88;1.50;;;17.30;85.10;;;;;;5013301;28;20018;-75
2021/07/29 01:24:57;;;;;;;2.97;1.15;;;17.30;85.30;;;;;;5012509;28;20105;-75
2021/07/29 01:27:23;;;;;;;4.45;1.27;;;17.30;85.40;;;;;;5028198;28;20148;-76
2021/07/29 01:29:49;;;;;;;5.55;1.42;;;17.30;85.30;;;;;;5027509;28;20014;-76
2021/07/29 01:32:14;;;;;;;2.92;1.40;;;17.30;84.80;;;;;;5028153;28;20412;-75
2021/07/29 01:34:41;;;;;;;3.80;1.48;;;17.20;84.40;;;;;;5012814;28;20395;-76
2021/07/29 01:37:07;;;;;;;3.65;1.40;;;17.20;84.50;;;;;;5013031;28;20026;-75
2021/07/29 01:39:32;;;;;;;3.25;1.30;;;17.20;84.70;;;;;;5028029;28;20362;-77
2021/07/29 01:41:58;;;;;;;3.92;1.40;;;17.30;84.70;;;;;;5012209;28;20468;-77
2021/07/29 01:44:24;;;;;;;2.10;1.13;;;17.30;84.50;;;;;;5012824;28;20033;-77
2021/07/29 01:46:50;;;;;;;4.60;1.67;;;17.30;84.40;;;;;;5012104;28;20018;-74
2021/07/29 01:49:21;;;;;;;3.38;1.92;;;17.30;84.60;;;;;;5012615;28;20101;-74
2021/07/29 01:51:47;;;;;;;;;;;17.40;84.50;;;;;;5012670;28;20466;-77
2021/07/29 01:54:13;;;;;;;6.72;1.70;;;17.30;84.40;;;;;;5011616;28;19912;-77
2021/07/29 01:56:41;;;;;;;2.42;1.00;;;17.30;84.40;;;;;;5012347;28;20097;-77
2021/07/29 01:59:06;;;;;;;3.50;1.13;;;17.30;84.60;;;;;;5011998;28;20076;-77
2021/07/29 02:01:32;;;;;;;5.60;1.40;;;17.30;84.50;;;;;;5012496;28;20022;-77
2021/07/29 02:03:58;;;;;;;4.55;1.33;;;17.40;84.70;;;;;;5010101;28;20042;-77
2021/07/29 02:06:24;;;;;;;3.25;1.30;;;17.40;84.50;;;;;;5012897;28;20112;-74
2021/07/29 02:08:49;;;;;;;4.30;1.40;;;17.40;84.40;;;;;;5026906;28;20030;-75
2021/07/29 02:11:15;;;;;;;2.45;1.42;;;17.40;84.40;;;;;;5027544;28;20048;-74
2021/07/29 02:13:41;;;;;;;4.10;1.38;;;17.40;84.40;;;;;;5027621;28;20442;-74
2021/07/29 02:16:11;;;;;;;5.32;1.38;;;17.30;84.30;;;;;;5026857;28;20022;-74
2021/07/29 02:18:37;;;;;;;4.77;1.70;;;17.30;84.70;;;;;;5012327;28;20025;-75
2021/07/29 02:21:02;;;;;;;4.43;1.50;;;17.30;84.60;;;;;;5011616;28;20018;-74
2021/07/29 02:23:28;;;;;;;4.57;1.30;;;17.30;84.60;;;;;;5027337;28;20021;-74
2021/07/29 02:25:54;;;;;;;4.20;1.33;;;17.20;84.70;;;;;;5011356;28;20087;-74
2021/07/29 02:28:19;;;;;;;4.47;1.15;;;17.20;84.90;;;;;;5010945;28;20113;-75
2021/07/29 02:30:45;;;;;;;6.80;1.42;;;17.20;85.20;;;;;;5011649;28;20568;-75
2021/07/29 02:33:11;;;;;;;5.45;1.60;;;17.10;85.00;;;;;;5027419;28;20458;-75
2021/07/29 02:35:36;;;;;;;3.80;1.33;;;17.10;85.20;;;;;;5011855;28;20022;-75
2021/07/29 02:38:02;;;;;;;4.55;1.55;;;17.10;85.50;;;;;;5011525;28;20030;-75
2021/07/29 02:40:28;;;;;;;3.05;1.40;;;17.10;85.10;;;;;;5027212;28;20048;-75
2021/07/29 02:42:53;;;;;;;7.60;1.65;;;17.00;85.40;;;;;;5011478;28;20465;-76
2021/07/29 02:45:19;;;;;;;2.63;1.30;;;17.00;85.30;;;;;;5012025;28;20038;-75
2021/07/29 02:47:44;;;;;;;6.00;1.50;;;17.00;85.60;;;;;;5011857;28;20446;-77
2021/07/29 02:50:10;;;;;;;2.83;1.20;;;17.00;85.80;;;;;;5026631;28;20014;-77
2021/07/29 02:52:36;;;;;;;4.50;1.60;;;16.90;85.80;;;;;;5011979;28;20100;-76
2021/07/29 02:55:02;;;;;;;8.38;1.38;;;16.90;85.60;;;;;;5026391;28;20454;-76
2021/07/29 02:57:28;;;;;;;4.95;1.27;;;17.00;85.90;;;;;;5011960;28;20051;-76
2021/07/29 02:59:55;;;;;;;3.47;1.27;;;17.00;85.80;;;;;;5011361;28;20018;-76
2021/07/29 03:02:20;;;;;;;4.22;1.23;;;17.00;85.80;;;;;;5027029;28;20026;-77
2021/07/29 03:04:46;;;;;;;5.55;1.45;;;17.10;85.80;;;;;;5013042;28;20124;-76
2021/07/29 03:07:11;;;;;;;8.15;1.40;;;17.10;86.10;;;;;;5015052;28;20033;-76
2021/07/29 03:09:37;;;;;;;6.93;1.40;;;17.00;85.50;;;;;;5015376;28;20029;-76
2021/07/29 03:12:04;;;;;;;4.50;1.52;;;17.00;85.50;;;;;;5015168;28;20030;-75
2021/07/29 03:14:29;;;;;;;3.45;1.27;;;17.00;85.80;;;;;;5015423;28;20145;-75
2021/07/29 03:16:55;;;;;;;4.18;1.40;;;17.00;85.90;;;;;;5014811;28;20056;-75
2021/07/29 03:19:21;;;;;;;2.88;1.13;;;17.00;85.80;;;;;;5015412;28;20149;-75
2021/07/29 03:21:46;;;;;;;5.57;1.83;;;17.00;85.50;;;;;;5015401;28;20022;-75
2021/07/29 03:24:12;;;;;;;3.58;1.60;;;17.00;85.60;;;;;;5014676;28;20104;-75
2021/07/29 03:26:37;;;;;;;4.43;1.83;;;17.00;85.80;;;;;;5030129;28;20068;-75
2021/07/29 03:29:03;;;;;;;3.58;1.40;;;17.00;85.50;;;;;;5014586;28;20064;-75
2021/07/29 03:31:29;;;;;;;8.80;1.65;;;17.00;85.60;;;;;;5015024;28;20140;-75
2021/07/29 03:33:54;;;;;;;6.38;1.45;;;17.00;85.60;;;;;;5029569;28;20368;-75
2021/07/29 03:36:20;;;;;;;3.75;1.70;;;17.00;85.60;;;;;;5014846;28;20049;-75
2021/07/29 03:38:47;;;;;;;3.40;1.23;;;17.00;85.60;;;;;;5030255;28;20113;-75
2021/07/29 03:41:12;;;;;;;5.10;1.30;;;17.00;85.60;;;;;;5029614;28;20092;-75
2021/07/29 03:43:38;;;;;;;6.50;1.38;;;17.00;85.90;;;;;;5015311;28;20454;-75
2021/07/29 03:46:03;;;;;;;9.20;2.03;;;17.10;86.50;;;;;;5029369;28;20022;-75
2021/07/29 03:48:29;;;;;;;3.58;1.35;;;17.10;85.80;;;;;;5014850;28;20014;-76
2021/07/29 03:50:55;;;;;;;6.60;1.75;;;17.10;85.80;;;;;;5014136;28;20083;-76
2021/07/29 03:53:20;;;;;;;6.28;1.52;;;17.10;85.80;;;;;;5029827;28;20057;-76
2021/07/29 03:55:46;;;;;;;5.18;1.90;;;17.10;85.70;;;;;;5014698;28;20076;-76
2021/07/29 03:58:12;;;;;;;3.45;1.50;;;17.10;86.00;;;;;;5014100;28;20374;-75
2021/07/29 04:00:37;;;;;;;3.08;1.38;;;17.10;85.90;;;;;;5029657;28;20434;-75
2021/07/29 04:03:06;;;;;;;3.67;1.25;;;17.10;86.00;;;;;;5024383;28;20137;-75
2021/07/29 04:05:31;;;;;;;5.63;1.50;;;17.20;86.00;;;;;;5031670;28;20458;-75
2021/07/29 04:07:57;;;;;;;5.30;1.90;;;17.20;85.80;;;;;;5033225;28;20024;-75
2021/07/29 04:10:22;;;;;;;3.65;1.60;;;17.20;86.00;;;;;;5033791;28;20025;-75
2021/07/29 04:12:48;;;;;;;5.07;1.55;;;17.30;86.10;;;;;;5033510;28;20018;-75
2021/07/29 04:15:14;;;;;;;7.40;2.15;;;17.20;86.10;;;;;;5031692;28;20022;-74
2021/07/29 04:17:40;;;;;;;4.55;1.50;;;17.30;86.20;;;;;;5032568;28;20397;-75
2021/07/29 04:20:07;;;;;;;2.63;1.40;;;17.20;86.10;;;;;;5032753;28;20013;-75
2021/07/29 04:22:34;;;;;;;6.10;1.33;;;17.30;86.20;;;;;;5031677;28;20121;-75
2021/07/29 04:25:00;;;;;;;7.07;1.90;;;17.30;86.00;;;;;;5033129;28;20101;-75
2021/07/29 04:27:25;;;;;;;6.68;1.80;;;17.30;86.20;;;;;;5032495;28;20521;-74
2021/07/29 04:29:52;;;;;;;3.15;1.33;;;17.30;86.20;;;;;;5033858;28;20022;-75
2021/07/29 04:32:20;;;;;;;6.78;1.70;;;17.20;86.20;;;;;;5033239;28;20108;-75
2021/07/29 04:34:46;;;;;;;5.55;1.33;;;17.20;87.20;;;;;;5033643;28;20052;-75
2021/07/29 04:37:12;;;;;;;5.00;1.73;;;17.10;87.50;;;;;;5032791;28;20029;-75
2021/07/29 04:39:42;;;;;;;5.95;1.67;;;17.20;88.10;;;;;;5033600;28;20112;-73
2021/07/29 04:42:09;;;;;;;4.95;1.75;;;17.10;88.00;;;;;;5032761;28;20296;-74
2021/07/29 04:44:35;;;;;;;6.45;2.15;;;17.10;88.30;;;;;;5032183;28;20055;-74
2021/07/29 04:47:01;;;;;;;4.82;1.45;;;17.00;88.60;;;;;;5032104;28;20056;-82
2021/07/29 04:49:27;;;;;;;4.93;1.50;;;17.00;88.90;;;;;;5032253;28;20018;-82
2021/07/29 04:51:52;;;;;;;3.90;1.45;;;17.00;88.90;;;;;;5032315;28;20025;-80
2021/07/29 04:54:18;;;;;;;4.35;1.30;;;17.00;89.00;;;;;;5036052;28;20238;-83
2021/07/29 04:56:44;;;;;;;5.00;1.90;;;17.00;88.80;;;;;;5032331;28;20052;-80
2021/07/29 04:59:09;;;;;;;5.97;1.63;;;16.90;88.90;;;;;;5031111;28;20022;-81
2021/07/29 05:01:39;;;;;;;9.05;1.80;;;16.90;89.20;;;;;;5029878;28;20029;-80
2021/07/29 05:04:06;;;;;;;4.80;1.50;;;16.80;89.20;;;;;;5030569;28;20056;-88
2021/07/29 05:06:33;;;;;;;6.00;1.50;;;16.70;89.30;;;;;;5033129;28;20073;-86
2021/07/29 05:08:59;;;;;;;8.30;1.58;;;16.80;89.40;;;;;;5035936;28;20100;-86
2021/07/29 05:11:24;;;;;;;5.03;1.35;;;16.70;89.50;;;;;;5034026;28;20067;-85
2021/07/29 05:13:53;;;;;;;4.78;1.35;;;16.70;89.40;;;;;;5033928;28;20513;-84
2021/07/29 05:16:19;;;;;;;5.05;1.65;;;16.70;89.70;;;;;;5032671;28;20511;-82
2021/07/29 05:18:45;;;;;;;5.65;2.40;;;16.80;90.00;;;;;;5031292;28;20025;-81
2021/07/29 05:21:10;;;;;;;8.98;2.30;;;16.80;89.90;;;;;;5030970;28;20075;-82
2021/07/29 05:23:36;;;;;;;7.82;2.20;;;16.80;89.70;;;;;;5023215;28;20025;-84
2021/07/29 05:26:02;;;;;;;6.78;1.90;;;16.80;89.60;;;;;;5019521;28;20385;-82
2021/07/29 05:28:28;;;;;;;3.95;1.63;;;16.90;89.50;;;;;;5031756;28;20469;-81
2021/07/29 05:30:53;;;;;;;5.00;1.73;;;16.90;89.60;;;;;;5030158;28;20024;-75
2021/07/29 05:33:19;;;;;;;2.83;1.00;;;16.90;89.60;;;;;;5031223;28;20461;-75
2021/07/29 05:35:45;;;;;;;6.90;1.75;;;16.90;89.60;;;;;;5031299;28;20021;-75
2021/07/29 05:38:10;;;;;;;7.78;1.98;;;17.00;89.50;;;;;;5030682;28;20453;-75
2021/07/29 05:40:37;;;;;;;3.83;1.70;;;17.10;89.10;;;;;;5032238;28;20098;-75
2021/07/29 05:43:02;;;;;;;9.68;2.50;;;17.10;88.90;;;;;;5031903;28;20104;-75
2021/07/29 05:45:28;;;;;;;6.57;1.90;;;17.20;88.60;;;;;;5032727;28;20018;-75
2021/07/29 05:47:54;;;;;;;7.20;1.67;;;17.20;88.60;;;;;;5031037;28;20052;-75
2021/07/29 05:50:21;;;;;;;7.53;1.98;;;17.30;88.50;;;;;;5030413;28;20025;-75
2021/07/29 05:52:50;;;;;;;8.43;2.13;;;17.30;88.30;;;;;;5032217;28;20014;-74
2021/07/29 05:55:16;;;;;;;4.68;1.73;;;17.30;88.10;;;;;;5031371;28;20029;-74
2021/07/29 05:57:42;;;;;;;7.80;1.90;;;17.30;88.20;;;;;;5032501;28;20048;-75
2021/07/29 06:00:08;;;;;;;7.75;1.77;;;17.30;87.70;;;;;;5031615;28;20449;-75
2021/07/29 06:02:34;;;;;;;7.80;1.90;;;17.30;87.60;;;;;;5032112;28;20014;-74
2021/07/29 06:05:00;;;;;;;5.55;2.08;;;17.30;87.40;;;;;;5032022;28;20038;-75
2021/07/29 06:07:26;;;;;;;8.27;2.17;;;17.20;87.40;;;;;;5031835;28;20052;-74
2021/07/29 06:09:52;;;;;;;7.00;2.25;;;17.20;87.60;;;;;;5030831;28;20438;-74
2021/07/29 06:12:24;;;;;;;7.78;1.70;;;17.20;87.40;;;;;;5030111;28;20018;-75
2021/07/29 06:14:54;;;;;;;10.75;2.55;;;17.30;87.50;;;;;;5031989;28;20071;-75
2021/07/29 06:17:24;;;;;;;3.22;1.35;;;17.40;87.40;;;;;;5031483;28;20025;-75
2021/07/29 06:19:50;;;;;;;7.57;2.00;;;17.40;87.30;;;;;;5030621;28;20450;-76
2021/07/29 06:22:16;;;;;;;4.78;2.05;;;17.40;87.00;;;;;;5031339;28;20033;-74
2021/07/29 06:24:41;;;;;;;8.38;2.40;;;17.50;86.80;;;;;;5031971;28;20034;-74
2021/07/29 06:27:07;;;;;;;6.00;1.88;;;17.40;86.60;;;;;;5030037;28;20031;-76
2021/07/29 06:29:33;;;;;;;8.85;2.83;;;17.40;87.00;;;;;;5032372;28;20345;-74
2021/07/29 06:31:58;;;;;;;6.40;2.03;;;17.40;87.20;;;;;;5030655;28;20442;-74
2021/07/29 06:34:24;;;;;;;6.28;2.15;;;17.30;87.10;;;;;;5031167;28;20370;-74
2021/07/29 06:36:49;;;;;;;7.05;2.30;;;17.30;87.10;;;;;;5030465;28;20033;-74
2021/07/29 06:39:15;;;;;;;4.45;1.98;;;17.30;87.40;;;;;;5031310;28;20076;-74
2021/07/29 06:41:41;;;;;;;6.95;2.30;;;17.30;87.70;;;;;;5035768;28;20014;-74
2021/07/29 06:44:08;;;;;;;6.95;2.55;;;17.30;87.70;;;;;;5035380;28;20025;-75
2021/07/29 06:46:36;;;;;;;7.03;1.98;;;17.30;87.70;;;;;;5034631;28;20397;-74
2021/07/29 06:49:02;;;;;;;8.20;2.25;;;17.30;87.50;;;;;;5034399;28;20022;-74
2021/07/29 06:51:27;;;;;;;4.10;1.98;;;17.40;87.50;;;;;;5034992;28;20331;-74
2021/07/29 06:53:53;;;;;;;9.43;2.60;;;17.40;87.30;;;;;;5034234;28;20017;-74
2021/07/29 06:56:18;;;;;;;9.73;2.78;;;17.50;87.40;;;;;;5033768;28;20021;-74
2021/07/29 06:58:44;;;;;;;7.03;2.47;;;17.50;86.70;;;;;;5035487;28;20389;-74
2021/07/29 07:01:10;;;;;;;12.57;2.60;;;17.50;86.60;;;;;;5034837;28;20057;-74
2021/07/29 07:03:35;;;;;;;8.70;2.33;;;17.60;85.80;;;;;;5034059;28;20155;-74
2021/07/29 07:06:06;;;;;;;7.65;2.83;;;17.70;85.50;;;;;;5035393;28;20361;-74
2021/07/29 07:08:32;;;;;;;4.65;2.35;;;17.80;85.20;;;;;;5035329;28;20020;-74
2021/07/29 07:10:58;;;;;;;6.53;2.83;;;17.90;84.20;;;;;;5035239;28;20017;-74
2021/07/29 07:13:23;;;;;;;10.23;2.90;;;18.00;83.70;;;;;;5033198;28;20022;-75
2021/07/29 07:15:49;;;;;;;5.90;2.05;;;18.10;83.40;;;;;;5035523;28;20025;-75
2021/07/29 07:18:15;;;;;;;7.00;2.85;;;18.20;83.30;;;;;;5033328;28;20017;-75
2021/07/29 07:20:40;;;;;;;6.88;2.63;;;18.30;82.70;;;;;;5033619;28;20025;-74
2021/07/29 07:23:06;;;;;;;4.55;2.05;;;18.30;82.10;;;;;;5034898;28;20092;-74
2021/07/29 07:25:36;;;;;;;8.50;2.17;;;18.30;82.30;;;;;;5034963;28;20013;-74
2021/07/29 07:28:02;;;;;;;7.15;2.60;;;18.30;82.80;;;;;;5033669;28;20476;-74
2021/07/29 07:30:28;;;;;;;6.28;2.25;;;18.30;81.70;;;;;;5034289;28;20033;-74
2021/07/29 07:32:54;;;;;;;9.98;2.97;;;18.30;81.90;;;;;;5033390;28;20013;-74
2021/07/29 07:35:19;;;;;;;5.10;2.10;;;18.40;81.90;;;;;;5032844;28;20120;-74
2021/07/29 07:37:45;;;;;;;5.97;2.47;;;18.40;81.90;;;;;;5034431;28;20017;-74
2021/07/29 07:40:11;;;;;;;4.32;2.05;;;18.50;81.60;;;;;;5034361;28;20045;-74
2021/07/29 07:42:37;;;;;;;5.28;2.15;;;18.60;80.90;;;;;;5033308;28;20418;-74
2021/07/29 07:45:03;;;;;;;9.10;2.38;;;18.60;79.90;;;;;;5034379;28;20035;-73
2021/07/29 07:47:29;;;;;;;7.30;1.98;;;18.60;79.60;;;;;;5032530;28;20101;-74
2021/07/29 07:49:56;;;;;;;6.45;1.83;;;18.50;79.80;;;;;;5033237;28;20152;-74
2021/07/29 07:52:22;;;;;;;6.43;1.90;;;18.50;79.40;;;;;;5033896;28;20021;-74
2021/07/29 07:54:47;;;;;;;6.18;2.60;;;18.40;79.40;;;;;;5034162;28;20033;-76
2021/07/29 07:57:13;;;;;;;6.55;2.15;;;18.50;79.80;;;;;;5032648;28;20450;-74
2021/07/29 07:59:39;;;;;;;5.30;1.83;;;18.50;79.10;;;;;;5032802;28;20013;-74
2021/07/29 08:02:06;;;;;;;8.63;2.47;;;18.40;79.20;;;;;;5033040;28;20025;-74
2021/07/29 08:04:32;;;;;;;9.10;2.83;;;18.40;78.80;;;;;;5031843;28;20049;-74
2021/07/29 08:06:58;;;;;;;10.32;2.25;;;18.40;78.90;;;;;;5034132;28;20064;-74
2021/07/29 08:09:24;;;;;;;6.25;2.47;;;18.40;79.00;;;;;;5032355;28;20061;-75
2021/07/29 08:11:50;;;;;;;6.20;2.10;;;18.40;78.20;;;;;;5032874;28;20020;-74
2021/07/29 08:14:16;;;;;;;5.82;2.15;;;18.40;78.60;;;;;;5033405;28;20036;-74
2021/07/29 08:16:41;;;;;;;6.10;2.15;;;18.50;78.80;;;;;;5033993;28;20104;-74
2021/07/29 08:19:08;;;;;;;3.88;2.08;;;18.50;78.70;;;;;;5032697;28;20033;-76
2021/07/29 08:21:34;;;;;;;5.57;2.30;;;18.50;78.30;;;;;;5032040;28;20025;-74
2021/07/29 08:24:00;;;;;;;5.88;2.15;;;18.50;77.90;;;;;;5033973;28;20025;-74
2021/07/29 08:26:26;;;;;;;7.70;2.42;;;18.50;77.90;;;;;;5033052;28;20021;-74
2021/07/29 08:28:52;;;;;;;6.47;2.25;;;18.60;77.80;;;;;;5033774;28;20450;-74
2021/07/29 08:31:19;;;;;;;3.80;1.90;;;18.70;77.20;;;;;;5033104;28;20020;-74
2021/07/29 08:33:45;;;;;;;2.65;1.80;;;18.70;76.90;;;;;;5033686;28;20022;-74
2021/07/29 08:36:14;;;;;;;7.68;2.20;;;18.90;76.50;;;;;;5033735;28;20415;-74
2021/07/29 08:38:41;;;;;;;7.10;2.80;;;19.00;76.30;;;;;;5033580;28;20053;-74
2021/07/29 08:41:07;;;;;;;7.60;2.53;;;19.10;74.70;;;;;;5033674;28;20537;-75
2021/07/29 08:43:34;;;;;;;5.53;2.25;;;19.20;73.80;;;;;;5032745;28;20412;-74
2021/07/29 08:46:00;;;;;;;5.88;1.90;;;19.10;71.70;;;;;;5032306;28;20047;-74
2021/07/29 08:48:27;;;;;;;8.15;2.03;;;19.00;71.80;;;;;;5032838;28;20045;-74
2021/07/29 08:50:56;;;;;;;8.45;2.05;;;18.90;71.50;;;;;;5032042;28;20113;-74
2021/07/29 08:53:22;;;;;;;8.88;2.17;;;18.90;72.20;;;;;;5032738;28;20026;-75
2021/07/29 08:55:53;;;;;;;4.63;1.92;;;19.00;72.60;;;;;;5033406;28;20013;-75
2021/07/29 08:58:19;;;;;;;4.95;1.80;;;19.10;73.00;;;;;;5032746;28;20357;-74
2021/07/29 09:01:06;;;;;;;10.43;2.00;;;19.20;72.40;;;;;;5031999;28;20018;-74
2021/07/29 09:03:33;;;;;;;4.60;2.08;;;19.30;72.40;;;;;;5032028;28;20018;-75
2021/07/29 09:06:03;;;;;;;4.82;1.92;;;19.30;71.90;;;;;;5032760;28;20053;-74
2021/07/29 09:08:42;;;;;;;4.07;1.20;;;19.30;71.40;;;;;;5031210;28;20112;-74
2021/07/29 09:11:28;;;;;;;3.15;1.70;;;19.40;70.30;;;;;;5033515;28;20029;-74
2021/07/29 09:14:16;;;;;;;4.25;1.40;;;19.40;69.80;;;;;;5031398;28;20461;-74
2021/07/29 09:17:03;;;;;;;4.80;1.80;;;19.40;70.40;;;;;;5033040;28;20014;-74
2021/07/29 09:19:41;;;;;;;4.75;1.48;;;19.40;71.00;;;;;;5030844;28;20130;-74
2021/07/29 09:22:17;;;;;;;4.05;1.50;;;19.50;71.10;;;;;;5033283;28;20053;-74
2021/07/29 09:25:02;;;;;;;4.65;1.92;;;19.50;71.20;;;;;;5031138;28;20120;-74
2021/07/29 09:27:40;;;;;;;3.90;1.60;;;19.70;70.70;;;;;;5032121;28;20112;-75
2021/07/29 09:30:14;;;;;;;4.07;1.38;;;19.70;69.20;;;;;;5031431;28;20358;-74
2021/07/29 09:33:04;;;;;;;6.25;1.50;;;19.60;68.50;;;;;;5031156;28;20017;-74
2021/07/29 09:35:32;;;;;;;5.68;1.50;;;19.60;68.60;;;;;;5031996;28;20052;-74
2021/07/29 09:38:18;;;;;;;6.97;1.77;;;19.70;68.70;;;;;;5032516;28;20026;-74
2021/07/29 09:40:49;;;;;;;8.32;1.40;;;19.70;66.10;;;;;;5031195;28;20017;-74
2021/07/29 09:43:20;;;;;;;4.93;1.98;;;19.80;66.30;;;;;;5030953;28;20064;-74
2021/07/29 09:45:54;;;;;;;7.15;1.30;;;19.90;66.40;;;;;;5032370;28;20017;-74
2021/07/29 09:48:22;;;;;;;4.85;1.30;;;20.10;64.80;;;;;;5030484;28;20027;-75
2021/07/29 09:50:54;;;;;;;3.75;1.42;;;20.10;63.70;;;;;;5032431;28;20053;-74
2021/07/29 09:53:22;;;;;;;6.30;1.70;;;20.10;63.30;;;;;;5031744;28;20021;-74
2021/07/29 09:55:48;;;;;;;6.75;1.50;;;20.10;63.60;;;;;;5032307;28;20017;-74
2021/07/29 09:58:14;;;;;;;6.53;1.50;;;20.10;63.40;;;;;;5032039;28;20017;-76
2021/07/29 10:00:40;;;;;;;6.07;1.58;;;20.10;64.20;;;;;;5031249;28;20017;-74
2021/07/29 10:03:09;;;;;;;6.72;1.73;;;20.10;64.30;;;;;;5032103;28;20044;-74
2021/07/29 10:05:53;;;;;;;3.88;1.30;;;20.20;64.20;;;;;;5031552;28;20052;-74
2021/07/29 10:08:30;;;;;;;8.05;1.50;;;20.20;63.70;;;;;;5031493;28;20078;-75
2021/07/29 10:10:57;;;;;;;7.28;1.75;;;20.10;63.90;;;;;;5030816;28;20021;-75
2021/07/29 10:13:36;;;;;;;4.03;1.40;;;20.10;64.40;;;;;;5031199;28;20029;-75
2021/07/29 10:16:01;;;;;;;10.98;2.42;;;20.10;64.80;;;;;;5031633;28;20017;-75
2021/07/29 10:18:50;;;;;;;7.10;1.80;;;20.00;64.40;;;;;;5029952;28;20100;-75
2021/07/29 10:21:23;;;;;;;4.22;1.70;;;20.00;65.00;;;;;;5031871;28;20450;-75
2021/07/29 10:23:56;;;;;;;5.97;1.65;;;20.00;64.70;;;;;;5030233;28;20029;-75
2021/07/29 10:26:22;;;;;;;5.93;1.95;;;20.10;64.30;;;;;;5031259;28;20075;-75
2021/07/29 10:28:49;;;;;;;7.05;1.65;;;20.20;63.80;;;;;;5031542;28;20413;-75
2021/07/29 10:31:17;;;;;;;4.57;1.70;;;20.20;64.10;;;;;;5031871;28;20099;-75
2021/07/29 10:33:44;;;;;;;4.15;1.95;;;20.20;64.20;;;;;;5029548;28;20036;-75
2021/07/29 10:36:45;;;;;;;2.75;1.50;;;20.20;64.10;;;;;;5030401;28;20028;-74
2021/07/29 10:39:11;;;;;;;10.83;2.33;;;20.10;64.70;;;;;;5032107;28;20024;-76
2021/07/29 10:41:42;;;;;;;4.57;2.20;;;19.40;82.30;;;;;;5031232;28;20021;-76
2021/07/29 10:44:28;;;;;;;7.38;2.08;;;18.70;85.50;;;;;;5031865;28;20025;-76
2021/07/29 10:46:54;;;;;;;6.00;2.20;;;18.40;90.60;;;;;;5029636;28;20040;-74
2021/07/29 10:49:20;;;;;;;8.77;2.33;;;18.20;91.20;;;;;;5030311;28;20022;-74
2021/07/29 10:52:04;;;;;;;8.65;2.47;;;18.10;92.00;;;;;;5030327;28;20019;-76
2021/07/29 10:54:30;;;;;;;13.32;3.35;;;18.00;91.80;;;;;;5029554;28;20469;-75
2021/07/29 10:56:57;;;;;;;9.55;3.25;;;17.60;93.00;;;;;;5031523;28;20021;-75
2021/07/29 10:59:23;;;;;;;8.38;3.10;;;17.30;95.50;;;;;;5030871;28;20079;-76
2021/07/29 11:01:49;;;;;;;7.55;3.60;;;16.90;96.60;;;;;;5030268;28;20017;-76
2021/07/29 11:04:15;;;;;;;9.60;4.25;;;16.70;98.30;;;;;;5030053;28;20424;-75
2021/07/29 11:06:43;;;;;;;6.10;3.35;;;16.60;99.30;;;;;;5030895;28;20013;-74
2021/07/29 11:09:16;;;;;;;7.00;3.97;;;16.70;98.90;;;;;;5030169;28;20029;-73
2021/07/29 11:11:43;;;;;;;7.10;3.60;;;16.80;99.50;;;;;;5030635;28;20364;-74
2021/07/29 11:14:10;;;;;;;11.15;4.43;;;16.80;99.50;;;;;;5029981;28;20036;-73
2021/07/29 11:16:37;;;;;;;9.10;4.50;;;16.80;99.90;;;;;;5029599;28;20041;-73
2021/07/29 11:19:05;;;;;;;11.68;4.60;;;16.70;99.90;;;;;;5031483;28;20028;-73
2021/07/29 11:21:32;;;;;;;12.60;4.53;;;16.70;99.90;;;;;;5030748;28;20026;-74
2021/07/29 11:23:59;;;;;;;8.95;4.93;;;16.90;99.90;;;;;;5030010;28;20121;-74
2021/07/29 11:26:25;;;;;;;9.57;5.30;;;17.00;99.90;;;;;;5032435;28;20021;-73
2021/07/29 11:29:10;;;;;;;7.75;5.57;;;17.20;99.90;;;;;;5034706;28;20013;-74
2021/07/29 11:31:37;;;;;;;14.40;6.28;;;17.30;99.90;;;;;;5033075;28;20017;-73
2021/07/29 11:34:03;;;;;;;9.88;5.05;;;17.40;99.70;;;;;;5033440;28;20096;-75
2021/07/29 11:36:29;;;;;;;12.93;5.30;;;17.30;99.30;;;;;;5034151;28;20033;-73
2021/07/29 11:38:57;;;;;;;10.32;4.93;;;17.40;99.10;;;;;;5033411;28;20021;-73
2021/07/29 11:41:24;;;;;;;8.93;5.03;;;17.40;98.90;;;;;;5033532;28;20044;-73
2021/07/29 11:43:55;;;;;;;11.70;5.05;;;17.40;98.40;;;;;;5034388;28;20029;-73
2021/07/29 11:46:21;;;;;;;10.55;5.05;;;17.40;98.40;;;;;;5034599;28;20433;-73
2021/07/29 11:48:46;;;;;;;9.18;4.60;;;17.40;98.20;;;;;;5033727;28;20024;-73
2021/07/29 11:51:17;;;;;;;9.10;4.60;;;17.40;98.20;;;;;;5034588;28;20449;-73
2021/07/29 11:53:44;;;;;;;9.02;4.75;;;17.40;97.80;;;;;;5032523;28;20025;-73
2021/07/29 11:56:14;;;;;;;11.32;4.57;;;17.50;97.50;;;;;;5034431;28;20021;-73
2021/07/29 11:58:54;;;;;;;11.60;3.97;;;17.40;96.90;;;;;;5033887;28;20049;-73
2021/07/29 12:01:20;;;;;;;7.80;3.58;;;17.50;96.60;;;;;;5034466;28;20017;-73
2021/07/29 12:03:49;;;;;;;13.02;4.38;;;17.60;96.90;;;;;;5033442;28;20119;-73
2021/07/29 12:06:18;;;;;;;10.98;4.70;;;17.60;96.50;;;;;;5033814;28;20046;-73
2021/07/29 12:08:46;;;;;;;11.75;4.18;;;17.70;96.30;;;;;;5032280;28;20073;-73
2021/07/29 12:11:15;;;;;;;11.90;4.05;;;17.70;95.40;;;;;;5032756;28;20086;-75
2021/07/29 12:13:42;;;;;;;9.25;3.25;;;17.90;95.70;;;;;;5031959;28;20033;-75
2021/07/29 12:16:08;;;;;;;9.95;4.30;;;18.00;95.70;;;;;;5033653;28;20025;-73
2021/07/29 12:18:34;;;;;;;8.13;4.57;;;18.30;94.90;;;;;;5032101;28;20021;-73
2021/07/29 12:21:01;;;;;;;8.85;4.03;;;18.40;94.20;;;;;;5032611;28;20438;-73
2021/07/29 12:23:27;;;;;;;7.75;3.78;;;18.50;94.30;;;;;;5034053;28;20017;-73
2021/07/29 12:25:56;;;;;;;6.80;3.40;;;18.70;93.40;;;;;;5033853;28;20480;-73
2021/07/29 12:28:51;;;;;;;7.13;2.85;;;18.80;92.60;;;;;;5032482;28;20092;-73
2021/07/29 12:31:17;;;;;;;8.90;2.70;;;18.90;92.30;;;;;;5031796;28;20115;-73
2021/07/29 12:33:54;;;;;;;8.98;3.20;;;19.20;92.00;;;;;;5033080;28;20090;-73
2021/07/29 12:36:20;;;;;;;6.97;3.10;;;19.40;91.00;;;;;;5033736;28;20021;-73
2021/07/29 12:38:59;;;;;;;5.88;2.38;;;19.40;89.60;;;;;;5032181;28;20514;-73
2021/07/29 12:41:31;;;;;;;5.03;2.45;;;19.40;86.70;;;;;;5033661;28;20017;-73
2021/07/29 12:44:19;;;;;;;5.63;2.20;;;19.40;87.90;;;;;;5033786;28;20033;-72
2021/07/29 12:46:46;;;;;;;6.05;2.30;;;19.40;87.80;;;;;;5032904;28;20048;-73
2021/07/29 12:49:16;;;;;;;6.55;2.65;;;19.40;86.80;;;;;;5033570;28;20021;-72
2021/07/29 12:51:51;;;;;;;4.22;2.28;;;19.30;85.20;;;;;;5032784;28;20485;-73